Time,TemperatureF,DewpointF,PressureIn,WindDirection,WindDirectionDegrees,WindSpeedMPH,WindSpeedGustMPH,Humidity,HourlyPrecipIn,Conditions,Clouds,dailyrainin,SolarRadiationWatts/m^2,SoftwareType,DateUTC
2013-03-13 00:03:00,34.0,27.0,-100.00,WNW,301,6.0,12.0,76,0.00,,,0.67,0.000000,,2013-03-13 04:03:00,
2013-03-13 00:32:00,34.0,27.0,-100.00,WNW,294,4.0,11.0,74,0.00,,,0.62,0.000000,,2013-03-13 04:32:00,
2013-03-13 00:43:00,34.0,27.0,-100.00,WNW,294,4.0,11.0,74,0.00,,,0.62,0.000000,,2013-03-13 04:43:00,
2013-03-13 00:53:00,34.0,27.0,-100.00,WNW,294,4.0,11.0,74,0.00,,,0.62,0.000000,,2013-03-13 04:53:00,
2013-03-13 01:02:00,34.0,27.0,-100.00,WNW,294,4.0,11.0,74,0.00,,,0.62,0.000000,,2013-03-13 05:02:00,
2013-03-13 01:33:00,34.0,27.0,-100.00,WNW,290,4.0,11.0,75,0.00,,,0.59,0.000000,,2013-03-13 05:33:00,
2013-03-13 01:43:00,34.0,27.0,-100.00,WNW,290,4.0,11.0,75,0.00,,,0.59,0.000000,,2013-03-13 05:43:00,
2013-03-13 01:53:00,34.0,27.0,-100.00,WNW,290,4.0,11.0,75,0.00,,,0.59,0.000000,,2013-03-13 05:53:00,
2013-03-13 02:02:00,34.0,27.0,-100.00,WNW,290,4.0,11.0,75,0.00,,,0.59,0.000000,,2013-03-13 06:02:00,
2013-03-13 02:33:00,32.0,25.0,-100.00,WNW,287,5.0,12.0,76,0.00,,,0.58,0.000000,,2013-03-13 06:33:00,
2013-03-13 02:43:00,32.0,25.0,-100.00,WNW,287,5.0,12.0,76,0.00,,,0.58,0.000000,,2013-03-13 06:43:00,
2013-03-13 02:53:00,32.0,25.0,-100.00,WNW,287,5.0,12.0,76,0.00,,,0.58,0.000000,,2013-03-13 06:53:00,
2013-03-13 03:03:00,32.0,25.0,-100.00,WNW,287,5.0,12.0,76,0.00,,,0.58,0.000000,,2013-03-13 07:03:00,
2013-03-13 03:33:00,32.0,26.0,-100.00,WNW,295,5.0,11.0,78,0.00,,,0.58,0.000000,,2013-03-13 07:33:00,
2013-03-13 03:43:00,32.0,26.0,-100.00,WNW,295,5.0,11.0,78,0.00,,,0.58,0.000000,,2013-03-13 07:43:00,
2013-03-13 03:53:00,32.0,26.0,-100.00,WNW,295,5.0,11.0,78,0.00,,,0.58,0.000000,,2013-03-13 07:53:00,
2013-03-13 04:03:00,32.0,26.0,-100.00,WNW,295,5.0,11.0,78,0.00,,,0.58,0.000000,,2013-03-13 08:03:00,
2013-03-13 04:33:00,30.0,25.0,-100.00,WNW,299,4.0,12.0,83,0.00,,,0.56,0.000000,,2013-03-13 08:33:00,
2013-03-13 04:43:00,30.0,25.0,-100.00,WNW,299,4.0,12.0,83,0.00,,,0.56,0.000000,,2013-03-13 08:43:00,
2013-03-13 04:54:00,30.0,25.0,-100.00,WNW,299,4.0,12.0,83,0.00,,,0.56,0.000000,,2013-03-13 08:54:00,
2013-03-13 05:02:00,30.0,25.0,-100.00,WNW,299,4.0,12.0,83,0.00,,,0.56,0.000000,,2013-03-13 09:02:00,
2013-03-13 05:32:00,29.0,25.0,-100.00,WNW,287,3.0,8.0,84,0.00,,,0.53,0.000000,,2013-03-13 09:32:00,
2013-03-13 05:42:00,29.0,25.0,-100.00,WNW,287,3.0,8.0,84,0.00,,,0.53,0.000000,,2013-03-13 09:42:00,
2013-03-13 05:52:00,29.0,25.0,-100.00,WNW,287,3.0,8.0,84,0.00,,,0.53,0.000000,,2013-03-13 09:52:00,
2013-03-13 06:02:00,29.0,25.0,-100.00,WNW,287,3.0,8.0,84,0.00,,,0.53,0.000000,,2013-03-13 10:02:00,
2013-03-13 06:32:00,27.0,23.0,-100.00,NNE,26,1.0,6.0,84,0.00,,,0.45,0.000000,,2013-03-13 10:32:00,
2013-03-13 06:42:00,27.0,23.0,-100.00,NNE,26,1.0,6.0,84,0.00,,,0.45,0.000000,,2013-03-13 10:42:00,
2013-03-13 06:52:00,27.0,23.0,-100.00,NNE,26,1.0,6.0,84,0.00,,,0.45,0.000000,,2013-03-13 10:52:00,
2013-03-13 07:02:00,27.0,23.0,-100.00,NNE,26,1.0,6.0,84,0.00,,,0.45,0.000000,,2013-03-13 11:02:00,
2013-03-13 07:32:00,26.0,22.0,-100.00,WNW,303,2.0,4.0,83,0.00,,,0.39,0.000000,,2013-03-13 11:32:00,
2013-03-13 07:42:00,26.0,22.0,-100.00,WNW,303,2.0,4.0,83,0.00,,,0.39,0.000000,,2013-03-13 11:42:00,
2013-03-13 07:53:00,26.0,22.0,-100.00,WNW,303,2.0,4.0,83,0.00,,,0.39,0.000000,,2013-03-13 11:53:00,
2013-03-13 08:02:00,26.0,22.0,-100.00,WNW,303,2.0,4.0,83,0.00,,,0.39,0.000000,,2013-03-13 12:02:00,
2013-03-13 08:32:00,28.0,24.0,-100.00,NNW,348,1.0,3.0,84,0.00,,,0.31,18.000000,,2013-03-13 12:32:00,
2013-03-13 08:42:00,28.0,24.0,-100.00,NNW,348,1.0,3.0,84,0.00,,,0.31,18.000000,,2013-03-13 12:42:00,
2013-03-13 08:53:00,28.0,24.0,-100.00,NNW,348,1.0,3.0,84,0.00,,,0.31,18.000000,,2013-03-13 12:53:00,
2013-03-13 09:02:00,28.0,24.0,-100.00,NNW,348,1.0,3.0,84,0.00,,,0.31,18.000000,,2013-03-13 13:02:00,
2013-03-13 09:33:00,32.0,25.0,-100.00,WSW,245,3.0,6.0,75,0.00,,,0.28,108.000000,,2013-03-13 13:33:00,
2013-03-13 09:43:00,32.0,25.0,-100.00,WSW,245,3.0,6.0,75,0.00,,,0.28,108.000000,,2013-03-13 13:43:00,
2013-03-13 09:53:00,32.0,25.0,-100.00,WSW,245,3.0,6.0,75,0.00,,,0.28,108.000000,,2013-03-13 13:53:00,
2013-03-13 10:03:00,32.0,25.0,-100.00,WSW,245,3.0,6.0,75,0.00,,,0.28,108.000000,,2013-03-13 14:03:00,
2013-03-13 10:34:00,36.0,29.0,-100.00,West,259,5.0,9.0,77,0.00,,,0.18,201.000000,,2013-03-13 14:34:00,
2013-03-13 10:42:00,36.0,29.0,-100.00,West,259,5.0,9.0,77,0.00,,,0.18,201.000000,,2013-03-13 14:42:00,
2013-03-13 10:53:00,36.0,29.0,-100.00,West,259,5.0,9.0,77,0.00,,,0.18,201.000000,,2013-03-13 14:53:00,
2013-03-13 11:03:00,36.0,29.0,-100.00,West,259,5.0,9.0,77,0.00,,,0.18,201.000000,,2013-03-13 15:03:00,
2013-03-13 11:33:00,37.0,24.0,-100.00,West,263,6.0,13.0,58,0.00,,,0.09,491.000000,,2013-03-13 15:33:00,
2013-03-13 11:43:00,37.0,24.0,-100.00,West,263,6.0,13.0,58,0.00,,,0.09,491.000000,,2013-03-13 15:43:00,
2013-03-13 11:53:00,37.0,24.0,-100.00,West,263,6.0,13.0,58,0.00,,,0.09,491.000000,,2013-03-13 15:53:00,
2013-03-13 12:03:00,37.0,24.0,-100.00,West,263,6.0,13.0,58,0.00,,,0.09,491.000000,,2013-03-13 16:03:00,
2013-03-13 12:33:00,37.0,23.0,-100.00,West,274,5.0,12.0,57,0.00,,,0.02,195.000000,,2013-03-13 16:33:00,
2013-03-13 12:42:00,37.0,23.0,-100.00,West,274,5.0,12.0,57,0.00,,,0.02,195.000000,,2013-03-13 16:42:00,
2013-03-13 12:52:00,37.0,23.0,-100.00,West,274,5.0,12.0,57,0.00,,,0.02,195.000000,,2013-03-13 16:52:00,
2013-03-13 13:03:00,37.0,23.0,-100.00,West,274,5.0,12.0,57,0.00,,,0.02,195.000000,,2013-03-13 17:03:00,
2013-03-13 13:33:00,31.0,29.0,-100.00,WNW,283,4.0,16.0,93,0.00,,,0.00,163.000000,,2013-03-13 17:33:00,
2013-03-13 13:42:00,31.0,29.0,-100.00,WNW,283,4.0,16.0,93,0.00,,,0.00,163.000000,,2013-03-13 17:42:00,
2013-03-13 13:53:00,31.0,29.0,-100.00,WNW,283,4.0,16.0,93,0.00,,,0.00,163.000000,,2013-03-13 17:53:00,
2013-03-13 14:02:00,31.0,29.0,-100.00,WNW,283,4.0,16.0,93,0.00,,,0.00,163.000000,,2013-03-13 18:02:00,
2013-03-13 14:33:00,37.0,27.0,-100.00,NW,319,7.0,15.0,67,0.01,,,0.01,605.000000,,2013-03-13 18:33:00,
2013-03-13 14:43:00,37.0,27.0,-100.00,NW,319,7.0,15.0,67,0.01,,,0.01,605.000000,,2013-03-13 18:43:00,
2013-03-13 14:52:00,37.0,27.0,-100.00,NW,319,7.0,15.0,67,0.01,,,0.01,605.000000,,2013-03-13 18:52:00,
2013-03-13 15:03:00,37.0,27.0,-100.00,NW,319,7.0,15.0,67,0.01,,,0.01,605.000000,,2013-03-13 19:03:00,
2013-03-13 15:32:00,36.0,23.0,-100.00,WNW,286,6.0,13.0,59,0.00,,,0.01,271.000000,,2013-03-13 19:32:00,
2013-03-13 15:43:00,36.0,23.0,-100.00,WNW,286,6.0,13.0,59,0.00,,,0.01,271.000000,,2013-03-13 19:43:00,
2013-03-13 15:53:00,36.0,23.0,-100.00,WNW,286,6.0,13.0,59,0.00,,,0.01,271.000000,,2013-03-13 19:53:00,
2013-03-13 16:02:00,36.0,23.0,-100.00,WNW,286,6.0,13.0,59,0.00,,,0.01,271.000000,,2013-03-13 20:02:00,
2013-03-13 16:33:00,37.0,21.0,-100.00,West,280,6.0,13.0,52,0.00,,,0.01,223.000000,,2013-03-13 20:33:00,
2013-03-13 16:42:00,37.0,21.0,-100.00,West,280,6.0,13.0,52,0.00,,,0.01,223.000000,,2013-03-13 20:42:00,
2013-03-13 16:52:00,37.0,21.0,-100.00,West,280,6.0,13.0,52,0.00,,,0.01,223.000000,,2013-03-13 20:52:00,
2013-03-13 17:02:00,37.0,21.0,-100.00,West,280,6.0,13.0,52,0.00,,,0.01,223.000000,,2013-03-13 21:02:00,
2013-03-13 17:34:00,37.0,28.0,-100.00,West,278,5.0,15.0,69,0.00,,,0.01,260.000000,,2013-03-13 21:34:00,
2013-03-13 17:42:00,37.0,28.0,-100.00,West,278,5.0,15.0,69,0.00,,,0.01,260.000000,,2013-03-13 21:42:00,
2013-03-13 17:52:00,37.0,28.0,-100.00,West,278,5.0,15.0,69,0.00,,,0.01,260.000000,,2013-03-13 21:52:00,
2013-03-13 18:02:00,37.0,28.0,-100.00,West,278,5.0,15.0,69,0.00,,,0.01,260.000000,,2013-03-13 22:02:00,
2013-03-13 18:32:00,29.0,25.0,-100.00,West,278,6.0,19.0,86,0.00,,,0.01,78.000000,,2013-03-13 22:32:00,
2013-03-13 18:42:00,29.0,25.0,-100.00,West,278,6.0,19.0,86,0.00,,,0.01,78.000000,,2013-03-13 22:42:00,
2013-03-13 18:52:00,29.0,25.0,-100.00,West,278,6.0,19.0,86,0.00,,,0.01,78.000000,,2013-03-13 22:52:00,
2013-03-13 19:02:00,29.0,25.0,-100.00,West,278,6.0,19.0,86,0.00,,,0.01,78.000000,,2013-03-13 23:02:00,
2013-03-13 19:32:00,30.0,22.0,-100.00,WNW,296,5.0,13.0,71,0.00,,,0.01,30.000000,,2013-03-13 23:32:00,
2013-03-13 19:43:00,30.0,22.0,-100.00,WNW,296,5.0,13.0,71,0.00,,,0.01,30.000000,,2013-03-13 23:43:00,
2013-03-13 19:52:00,30.0,22.0,-100.00,WNW,296,5.0,13.0,71,0.00,,,0.01,30.000000,,2013-03-13 23:52:00,
2013-03-13 20:02:00,30.0,22.0,-100.00,WNW,296,5.0,13.0,71,0.00,,,0.01,30.000000,,2013-03-14 00:02:00,
2013-03-13 20:33:00,28.0,17.0,-100.00,WNW,285,6.0,21.0,64,0.00,,,0.01,0.000000,,2013-03-14 00:33:00,
2013-03-13 20:42:00,28.0,17.0,-100.00,WNW,285,6.0,21.0,64,0.00,,,0.01,0.000000,,2013-03-14 00:42:00,
2013-03-13 20:52:00,28.0,17.0,-100.00,WNW,285,6.0,21.0,64,0.00,,,0.01,0.000000,,2013-03-14 00:52:00,
2013-03-13 21:03:00,28.0,17.0,-100.00,WNW,285,6.0,21.0,64,0.00,,,0.01,0.000000,,2013-03-14 01:03:00,
2013-03-13 21:33:00,27.0,17.0,-100.00,WNW,293,6.0,15.0,66,0.00,,,0.01,0.000000,,2013-03-14 01:33:00,
2013-03-13 21:42:00,27.0,17.0,-100.00,WNW,293,6.0,15.0,66,0.00,,,0.01,0.000000,,2013-03-14 01:42:00,
2013-03-13 21:53:00,27.0,17.0,-100.00,WNW,293,6.0,15.0,66,0.00,,,0.01,0.000000,,2013-03-14 01:53:00,
2013-03-13 22:02:00,27.0,17.0,-100.00,WNW,293,6.0,15.0,66,0.00,,,0.01,0.000000,,2013-03-14 02:02:00,
2013-03-13 22:33:00,26.0,16.0,-100.00,WNW,298,5.0,17.0,64,0.00,,,0.01,0.000000,,2013-03-14 02:33:00,
2013-03-13 22:42:00,26.0,16.0,-100.00,WNW,298,5.0,17.0,64,0.00,,,0.01,0.000000,,2013-03-14 02:42:00,
2013-03-13 22:52:00,26.0,16.0,-100.00,WNW,298,5.0,17.0,64,0.00,,,0.01,0.000000,,2013-03-14 02:52:00,
2013-03-13 23:02:00,26.0,16.0,-100.00,WNW,298,5.0,17.0,64,0.00,,,0.01,0.000000,,2013-03-14 03:02:00,
2013-03-13 23:33:00,26.0,13.0,-100.00,WNW,303,6.0,17.0,58,0.00,,,0.01,0.000000,,2013-03-14 03:33:00,
2013-03-13 23:42:00,26.0,13.0,-100.00,WNW,303,6.0,17.0,58,0.00,,,0.01,0.000000,,2013-03-14 03:42:00,
2013-03-13 23:53:00,26.0,13.0,-100.00,WNW,303,6.0,17.0,58,0.00,,,0.01,0.000000,,2013-03-14 03:53:00,